Time;durP1;ratioP1;P1;durP2;ratioP2;P2;SDS_P1;SDS_P2;PMS_P1;PMS_P2;Temp;Humidity;BMP_temperature;BMP_pressure;BME280_temperature;BME280_humidity;BME280_pressure;Samples;Min_cycle;Max_cycle;Signal;HPM_P1;HPM_P2
2021/08/01 00:01:05;;;;;;;17.25;11.12;;;;;;;22.73;63.55;99757.80;1724556;82;21432;-70
2021/08/01 00:03:32;;;;;;;15.65;10.45;;;;;;;22.68;63.52;99754.91;1713570;82;21059;-71
2021/08/01 00:05:58;;;;;;;16.45;11.45;;;;;;;22.66;63.42;99760.52;1704728;81;20981;-70
2021/08/01 00:08:25;;;;;;;17.60;10.78;;;;;;;22.71;63.45;99762.05;1717534;81;21013;-70
2021/08/01 00:10:57;;;;;;;15.90;10.93;;;;;;;22.71;63.35;99758.53;1740471;81;21823;-70
2021/08/01 00:13:24;;;;;;;17.03;10.83;;;;;;;22.72;63.25;99762.88;1681625;83;20957;-70
2021/08/01 00:15:51;;;;;;;13.70;10.85;;;;;;;22.71;63.27;99759.88;1737350;81;21012;-70
2021/08/01 00:18:17;;;;;;;15.03;10.18;;;;;;;22.71;63.21;99759.88;1712274;82;20974;-70
2021/08/01 00:20:44;;;;;;;16.37;9.98;;;;;;;22.71;62.97;99762.05;1717886;82;21067;-70
2021/08/01 00:23:11;;;;;;;15.70;9.85;;;;;;;22.71;63.03;99761.23;1725888;82;22795;-70
2021/08/01 00:25:39;;;;;;;16.70;10.28;;;;;;;22.69;62.85;99761.97;1740220;82;20993;-70
2021/08/01 00:28:06;;;;;;;16.42;10.03;;;;;;;22.67;62.79;99762.68;1713358;81;20969;-70
2021/08/01 00:30:33;;;;;;;11.97;9.15;;;;;;;22.70;62.62;99764.97;1720346;82;21049;-70
2021/08/01 00:33:00;;;;;;;16.10;10.53;;;;;;;22.66;62.63;99765.07;1705073;84;20995;-70
2021/08/01 00:35:27;;;;;;;12.70;9.58;;;;;;;22.61;62.79;99761.70;1720524;81;22183;-70
2021/08/01 00:37:55;;;;;;;14.78;10.23;;;;;;;22.57;62.85;99759.11;1729184;81;21001;-70
2021/08/01 00:40:22;;;;;;;18.52;10.63;;;;;;;22.54;62.85;99758.20;1711969;82;21017;-70
2021/08/01 00:42:52;;;;;;;15.90;10.08;;;;;;;22.53;62.88;99747.13;1741053;81;21060;-70
2021/08/01 00:45:18;;;;;;;12.30;9.63;;;;;;;22.51;62.89;99751.39;1746722;81;20996;-71
2021/08/01 00:47:45;;;;;;;12.18;9.53;;;;;;;22.51;62.81;99757.30;1748503;81;22235;-74
2021/08/01 00:50:13;;;;;;;17.45;9.80;;;;;;;22.47;62.84;99746.64;1754864;81;20990;-70
2021/08/01 00:52:40;;;;;;;12.37;9.38;;;;;;;22.45;62.95;99751.41;1719982;83;21048;-70
2021/08/01 00:55:11;;;;;;;10.28;9.18;;;;;;;22.43;63.35;99750.28;1719090;83;20976;-70
2021/08/01 00:57:39;;;;;;;16.42;9.53;;;;;;;22.41;63.50;99745.64;1715293;83;20961;-70
2021/08/01 01:02:54;;;;;;;13.05;9.45;;;;;;;22.36;63.68;99755.38;1665860;86;21016;-70
2021/08/01 01:05:25;;;;;;;12.33;9.13;;;;;;;22.28;63.70;99751.06;1704188;82;21491;-70
2021/08/01 01:08:12;;;;;;;12.73;8.80;;;;;;;22.26;63.59;99755.31;1720922;82;21405;-70
2021/08/01 01:10:56;;;;;;;22.73;9.60;;;;;;;22.24;63.38;99756.58;1592291;85;20969;-71
2021/08/01 01:13:30;;;;;;;12.00;9.10;;;;;;;22.21;63.33;99753.80;1716395;82;21805;-70
2021/08/01 01:15:59;;;;;;;12.03;8.35;;;;;;;22.19;63.23;99750.98;1722824;82;20988;-70
2021/08/01 01:18:31;;;;;;;9.68;8.38;;;;;;;22.16;63.26;99748.21;1696456;83;21460;-70
2021/08/01 01:21:25;;;;;;;14.43;8.93;;;;;;;22.16;63.08;99746.87;1687905;83;21088;-70
2021/08/01 01:23:57;;;;;;;10.18;8.18;;;;;;;22.14;63.12;99743.57;1664117;85;21503;-69
2021/08/01 01:26:39;;;;;;;11.88;8.80;;;;;;;22.12;63.13;99744.31;1680387;84;21479;-70
2021/08/01 01:29:16;;;;;;;13.68;8.78;;;;;;;22.11;62.90;99739.97;1687764;85;20958;-70
2021/08/01 01:31:51;;;;;;;14.07;8.83;;;;;;;22.09;62.64;99738.51;1702652;83;21436;-70
2021/08/01 01:34:45;;;;;;;8.85;7.95;;;;;;;22.06;62.54;99734.36;1707494;83;21053;-70
2021/08/01 01:37:14;;;;;;;9.55;8.08;;;;;;;22.07;62.71;99736.03;1727001;82;21047;-70
2021/08/01 01:39:42;;;;;;;10.93;8.18;;;;;;;22.07;62.68;99741.41;1675578;82;21838;-70
2021/08/01 01:42:11;;;;;;;11.03;8.40;;;;;;;22.03;62.55;99740.17;1688421;84;21610;-70
2021/08/01 01:44:42;;;;;;;12.80;8.58;;;;;;;22.02;62.53;99735.83;1689926;84;21483;-70
2021/08/01 01:47:09;;;;;;;11.73;8.53;;;;;;;22.03;62.56;99736.66;1707637;82;20955;-70
2021/08/01 01:49:37;;;;;;;13.18;9.38;;;;;;;22.01;62.73;99735.52;1673591;85;21431;-70
2021/08/01 01:52:06;;;;;;;11.88;8.80;;;;;;;21.96;62.77;99734.80;1689887;84;21777;-70
2021/08/01 01:54:35;;;;;;;14.15;8.93;;;;;;;21.93;63.05;99733.89;1701720;84;21095;-70
2021/08/01 01:57:01;;;;;;;10.15;8.20;;;;;;;21.93;63.23;99722.30;1701403;84;21020;-70
2021/08/01 01:59:30;;;;;;;12.05;8.08;;;;;;;21.89;63.56;99722.41;1656900;83;20972;-70
2021/08/01 02:01:58;;;;;;;12.37;8.45;;;;;;;21.83;63.85;99730.81;1701123;83;20976;-70
2021/08/01 02:04:25;;;;;;;13.93;8.93;;;;;;;21.75;64.06;99724.83;1717716;83;21785;-70
2021/08/01 02:06:53;;;;;;;12.53;8.78;;;;;;;21.73;64.18;99722.88;1726744;82;21108;-70
2021/08/01 02:09:51;;;;;;;11.90;7.85;;;;;;;21.67;64.53;99725.35;1724587;81;20989;-71
2021/08/01 02:12:50;;;;;;;12.13;8.53;;;;;;;21.58;64.96;99723.92;1722688;83;21009;-70
2021/08/01 02:15:20;;;;;;;9.05;7.95;;;;;;;21.47;65.34;99727.77;1690515;83;21016;-70
2021/08/01 02:17:57;;;;;;;11.25;8.75;;;;;;;21.37;65.79;99729.01;1720296;82;22556;-70
2021/08/01 02:20:31;;;;;;;9.75;7.87;;;;;;;21.33;65.90;99731.81;1712824;83;21004;-70
2021/08/01 02:23:23;;;;;;;10.58;7.78;;;;;;;21.30;65.69;99737.58;1672973;83;21037;-71
2021/08/01 02:25:54;;;;;;;13.13;8.25;;;;;;;21.31;65.47;99727.66;1723425;82;21076;-71
2021/08/01 02:28:23;;;;;;;11.38;7.72;;;;;;;21.33;65.23;99728.30;1653822;85;21520;-70
2021/08/01 02:30:50;;;;;;;9.30;8.30;;;;;;;21.36;65.26;99730.56;1707281;83;21801;-70
2021/08/01 02:33:17;;;;;;;11.85;8.70;;;;;;;21.39;64.96;99734.99;1724221;81;21130;-70
2021/08/01 02:35:44;;;;;;;12.75;8.88;;;;;;;21.40;64.90;99739.84;1719580;82;21060;-70
2021/08/01 02:38:12;;;;;;;9.55;8.50;;;;;;;21.41;64.65;99742.84;1660824;85;21029;-70
2021/08/01 02:40:39;;;;;;;14.03;9.53;;;;;;;21.40;64.54;99752.77;1668033;84;21067;-70
2021/08/01 02:43:09;;;;;;;12.50;9.05;;;;;;;21.37;64.53;99741.62;1692884;84;21855;-70
2021/08/01 02:45:38;;;;;;;15.08;8.90;;;;;;;21.37;64.57;99741.09;1688158;85;20923;-70
2021/08/01 02:48:05;;;;;;;13.80;9.20;;;;;;;21.38;64.49;99747.30;1692469;84;20968;-70
2021/08/01 02:50:33;;;;;;;12.50;9.10;;;;;;;21.37;64.44;99743.78;1663169;86;21094;-70
2021/08/01 02:53:03;;;;;;;11.25;9.10;;;;;;;21.37;64.57;99741.62;1667007;84;21059;-70
2021/08/01 02:55:32;;;;;;;13.85;9.48;;;;;;;21.36;64.64;99740.79;1691955;84;21843;-70
2021/08/01 02:58:00;;;;;;;13.48;8.33;;;;;;;21.37;64.67;99745.12;1691992;84;20963;-70
2021/08/01 03:00:27;;;;;;;11.15;9.30;;;;;;;21.36;64.91;99735.94;1663240;86;20964;-70
2021/08/01 03:02:56;;;;;;;10.18;9.05;;;;;;;21.37;64.99;99743.78;1665987;84;20965;-70
2021/08/01 03:05:22;;;;;;;14.25;9.20;;;;;;;21.38;64.88;99743.27;1663291;86;20949;-70
2021/08/01 03:07:49;;;;;;;10.40;8.85;;;;;;;21.35;65.01;99735.63;1690077;84;21784;-70
2021/08/01 03:10:16;;;;;;;11.95;9.33;;;;;;;21.36;65.03;99739.97;1692377;84;21135;-70
2021/08/01 03:12:49;;;;;;;9.83;8.18;;;;;;;21.34;65.04;99735.33;1692479;84;21011;-70
2021/08/01 03:15:18;;;;;;;11.12;8.68;;;;;;;21.35;65.06;99739.66;1680061;84;20972;-70
2021/08/01 03:17:45;;;;;;;13.43;8.80;;;;;;;21.37;65.00;99746.98;1703063;83;21375;-70
2021/08/01 03:20:13;;;;;;;14.85;8.78;;;;;;;21.36;64.98;99744.00;1674738;85;21837;-70
2021/08/01 03:22:41;;;;;;;11.68;8.93;;;;;;;21.36;64.85;99750.71;1671371;85;21028;-70
2021/08/01 03:25:09;;;;;;;10.88;8.53;;;;;;;21.36;64.96;99742.13;1675295;85;20970;-70
2021/08/01 03:27:36;;;;;;;14.15;8.55;;;;;;;21.46;64.68;99740.38;1673343;85;20977;-70
2021/08/01 03:30:03;;;;;;;11.50;8.68;;;;;;;21.50;64.64;99736.74;1690938;83;21009;-70
2021/08/01 03:32:30;;;;;;;12.03;8.03;;;;;;;21.60;64.62;99735.28;1680462;85;21538;-70
2021/08/01 03:34:57;;;;;;;9.75;7.95;;;;;;;21.70;64.57;99732.16;1688046;85;21565;-70
2021/08/01 03:37:26;;;;;;;15.30;7.92;;;;;;;21.78;64.34;99732.47;1685437;85;20999;-70
2021/08/01 03:40:13;;;;;;;10.80;7.45;;;;;;;21.86;64.07;99737.10;1670217;84;21445;-70
2021/08/01 03:42:41;;;;;;;11.48;7.83;;;;;;;21.94;63.76;99729.33;1669590;84;21109;-70
2021/08/01 03:45:11;;;;;;;12.13;7.53;;;;;;;22.02;63.54;99722.91;1696115;84;22227;-70
2021/08/01 03:47:39;;;;;;;10.60;7.25;;;;;;;22.11;63.38;99721.14;1744372;82;20946;-70
2021/08/01 03:50:07;;;;;;;11.83;8.25;;;;;;;22.22;63.16;99723.16;1740489;82;20949;-70
2021/08/01 03:52:34;;;;;;;9.38;7.90;;;;;;;22.33;63.00;99731.61;1709900;83;21009;-70
2021/08/01 03:55:00;;;;;;;9.08;7.12;;;;;;;22.41;62.74;99734.06;1748262;81;21047;-70
2021/08/01 03:57:27;;;;;;;12.63;7.58;;;;;;;22.48;62.69;99732.13;1712509;83;22260;-70
2021/08/01 03:59:53;;;;;;;11.45;7.20;;;;;;;22.56;62.53;99741.31;1687007;85;20996;-70
2021/08/01 04:02:20;;;;;;;10.98;7.35;;;;;;;22.62;62.42;99737.77;1678058;85;20978;-70
2021/08/01 04:04:46;;;;;;;9.05;7.08;;;;;;;22.68;62.06;99742.80;1676753;85;20986;-70
2021/08/01 04:07:13;;;;;;;11.93;7.20;;;;;;;22.69;61.85;99739.91;1683924;85;21069;-70
2021/08/01 04:09:39;;;;;;;10.00;7.47;;;;;;;22.70;61.82;99744.25;1709531;83;21786;-70
2021/08/01 04:12:07;;;;;;;11.10;7.83;;;;;;;22.76;61.85;99748.75;1710449;83;21393;-70
2021/08/01 04:14:34;;;;;;;9.20;7.62;;;;;;;22.79;62.10;99740.27;1750052;81;21508;-70
2021/08/01 04:17:02;;;;;;;13.70;8.65;;;;;;;22.84;62.20;99740.45;1748037;82;21013;-71
2021/08/01 04:19:29;;;;;;;11.45;8.68;;;;;;;22.89;62.19;99746.55;1749368;81;20933;-71
2021/08/01 04:21:55;;;;;;;13.25;8.83;;;;;;;22.91;62.10;99738.25;1755993;80;21807;-71
2021/08/01 04:24:22;;;;;;;11.35;8.48;;;;;;;22.92;61.91;99738.03;1750055;82;21447;-70
2021/08/01 04:26:48;;;;;;;10.32;8.45;;;;;;;22.93;61.85;99734.30;1748787;82;21483;-70
2021/08/01 04:29:15;;;;;;;11.03;8.33;;;;;;;22.97;61.89;99740.05;1744746;82;21494;-70
2021/08/01 04:31:42;;;;;;;13.80;8.60;;;;;;;23.02;61.89;99738.89;1743937;82;20997;-70
2021/08/01 04:34:11;;;;;;;12.53;9.08;;;;;;;23.04;61.83;99732.77;1749967;81;21745;-71
2021/08/01 04:36:38;;;;;;;12.50;8.85;;;;;;;23.11;61.83;99733.55;1751624;81;21071;-71
2021/08/01 04:39:05;;;;;;;10.10;8.20;;;;;;;23.17;61.72;99729.16;1753081;80;20949;-70
2021/08/01 04:41:31;;;;;;;12.03;8.48;;;;;;;23.22;61.66;99738.22;1765486;81;21028;-70
2021/08/01 04:43:58;;;;;;;12.18;8.45;;;;;;;23.28;61.57;99741.39;1755349;81;20941;-70
2021/08/01 04:46:24;;;;;;;12.98;8.53;;;;;;;23.34;61.35;99748.58;1744029;81;21777;-71
2021/08/01 04:48:52;;;;;;;10.08;8.88;;;;;;;23.41;61.39;99753.41;1749626;81;21550;-72
2021/08/01 04:51:19;;;;;;;11.15;9.35;;;;;;;23.49;61.42;99753.66;1760687;81;21405;-70
2021/08/01 04:53:46;;;;;;;12.73;9.15;;;;;;;23.50;61.44;99758.52;1749216;81;21266;-72
2021/08/01 04:56:13;;;;;;;10.78;9.08;;;;;;;23.48;61.40;99758.74;1759266;81;20992;-71
2021/08/01 04:58:40;;;;;;;12.15;9.08;;;;;;;23.51;61.56;99756.13;1752189;81;21787;-70
2021/08/01 05:01:17;;;;;;;12.75;9.50;;;;;;;23.58;61.63;99748.81;1755296;81;20941;-70
2021/08/01 05:03:44;;;;;;;11.60;8.45;;;;;;;23.65;61.59;99751.78;1745080;81;20976;-71
2021/08/01 05:06:10;;;;;;;15.98;9.30;;;;;;;23.74;61.32;99753.67;1755403;81;20973;-70
2021/08/01 05:08:38;;;;;;;10.98;8.78;;;;;;;23.80;61.32;99747.37;1749792;81;20952;-70
2021/08/01 05:11:05;;;;;;;13.10;8.98;;;;;;;23.88;61.16;99746.26;1749241;82;21896;-70
2021/08/01 05:13:31;;;;;;;13.25;9.25;;;;;;;23.97;61.01;99747.61;1735211;81;21000;-73
2021/08/01 05:15:58;;;;;;;11.85;9.13;;;;;;;24.05;61.08;99741.10;1754598;81;20973;-70
2021/08/01 05:18:26;;;;;;;10.85;9.38;;;;;;;24.11;60.95;99743.70;1754645;81;21360;-71
2021/08/01 05:20:53;;;;;;;10.45;9.20;;;;;;;24.15;60.75;99735.47;1760571;81;21338;-70
2021/08/01 05:23:20;;;;;;;12.95;10.05;;;;;;;24.18;60.78;99746.33;1766487;80;22190;-71
2021/08/01 05:25:46;;;;;;;11.75;9.20;;;;;;;24.22;60.90;99740.27;1759771;81;21039;-71
2021/08/01 05:28:15;;;;;;;12.40;8.95;;;;;;;24.30;61.03;99743.69;1757108;81;20997;-70
2021/08/01 05:30:44;;;;;;;11.10;8.98;;;;;;;24.39;61.13;99743.72;1754298;81;20980;-70
2021/08/01 05:33:11;;;;;;;12.05;9.00;;;;;;;24.49;60.99;99747.52;1766126;81;21055;-69
2021/08/01 05:35:38;;;;;;;15.18;8.83;;;;;;;24.62;60.79;99751.94;1754635;81;21847;-69
2021/08/01 05:38:05;;;;;;;14.83;8.68;;;;;;;24.76;60.29;99752.57;1751308;81;21585;-69
2021/08/01 05:40:32;;;;;;;13.50;8.80;;;;;;;24.89;59.96;99759.13;1752367;81;21005;-69
2021/08/01 05:42:59;;;;;;;11.80;8.30;;;;;;;25.00;59.51;99752.14;1750139;81;21005;-70
2021/08/01 05:45:28;;;;;;;12.60;8.73;;;;;;;25.09;59.49;99753.45;1734176;80;21538;-71
2021/08/01 05:47:56;;;;;;;11.12;8.83;;;;;;;25.16;59.04;99756.06;1744784;82;22710;-72
2021/08/01 05:50:23;;;;;;;9.73;8.73;;;;;;;25.26;58.75;99746.85;1742858;82;20985;-71
2021/08/01 05:52:51;;;;;;;10.48;8.75;;;;;;;25.35;58.73;99748.16;1747781;81;21617;-70
2021/08/01 05:55:18;;;;;;;11.68;8.45;;;;;;;25.47;58.86;99746.81;1744984;82;20958;-70
2021/08/01 05:57:45;;;;;;;13.43;9.03;;;;;;;25.61;59.06;99750.95;1743501;82;20972;-70
2021/08/01 06:00:14;;;;;;;11.83;8.38;;;;;;;25.77;58.59;99748.92;1744077;82;21824;-71
2021/08/01 06:02:40;;;;;;;10.65;8.60;;;;;;;25.91;58.54;99746.78;1748783;82;20994;-72
2021/08/01 06:05:07;;;;;;;12.47;8.75;;;;;;;26.06;58.46;99747.66;1741983;81;20965;-72
2021/08/01 06:07:34;;;;;;;13.10;9.33;;;;;;;26.22;58.27;99754.48;1747015;82;21020;-73
2021/08/01 06:10:00;;;;;;;13.93;8.40;;;;;;;26.39;58.10;99753.78;1746415;82;20996;-73
2021/08/01 06:12:26;;;;;;;15.45;9.28;;;;;;;26.54;57.52;99754.09;1742930;81;22260;-72
2021/08/01 06:14:55;;;;;;;12.90;8.63;;;;;;;26.66;57.08;99754.04;1720021;82;21043;-72
2021/08/01 06:17:21;;;;;;;16.35;9.40;;;;;;;26.78;56.73;99755.63;1740316;81;21076;-72
2021/08/01 06:19:48;;;;;;;11.28;8.48;;;;;;;26.86;56.60;99751.70;1745901;82;20992;-72
2021/08/01 06:22:15;;;;;;;14.47;8.63;;;;;;;26.97;56.51;99752.17;1745276;82;20993;-72
2021/08/01 06:24:43;;;;;;;13.65;8.63;;;;;;;27.07;56.75;99755.09;1747146;81;21039;-74
2021/08/01 06:27:09;;;;;;;10.40;8.65;;;;;;;27.14;56.54;99750.88;1744712;81;21043;-73
2021/08/01 06:29:36;;;;;;;13.55;8.78;;;;;;;27.21;56.62;99755.58;1716392;82;21003;-73
2021/08/01 06:32:03;;;;;;;10.93;8.73;;;;;;;27.25;56.60;99759.46;1743853;82;21012;-73
2021/08/01 06:34:29;;;;;;;11.80;7.65;;;;;;;27.31;56.66;99761.70;1710824;83;21017;-73
2021/08/01 06:36:55;;;;;;;11.57;8.35;;;;;;;27.35;55.69;99762.34;1739815;82;21810;-73
2021/08/01 06:39:23;;;;;;;11.70;8.00;;;;;;;27.36;55.16;99766.69;1744439;81;21008;-72
2021/08/01 06:41:50;;;;;;;10.28;7.92;;;;;;;27.36;54.46;99766.69;1745445;82;21008;-73
2021/08/01 06:44:16;;;;;;;10.35;7.65;;;;;;;27.35;54.18;99762.88;1742483;81;21031;-73
2021/08/01 06:46:42;;;;;;;9.83;7.17;;;;;;;27.33;53.88;99756.34;1753644;81;21018;-71
2021/08/01 06:49:09;;;;;;;13.28;8.25;;;;;;;27.30;54.09;99758.71;1744954;81;21797;-72
2021/08/01 06:51:36;;;;;;;12.37;8.05;;;;;;;27.29;53.96;99754.36;1718451;82;21032;-72
2021/08/01 06:54:02;;;;;;;11.57;8.28;;;;;;;27.28;54.25;99756.78;1698110;83;21498;-73
2021/08/01 06:56:30;;;;;;;11.12;7.50;;;;;;;27.28;54.43;99755.43;1742764;81;21016;-73
2021/08/01 06:58:57;;;;;;;11.00;7.83;;;;;;;27.37;54.85;99756.13;1752358;81;21039;-72
2021/08/01 07:01:25;;;;;;;9.78;7.62;;;;;;;27.37;54.77;99752.06;1746431;81;22415;-70
2021/08/01 07:03:51;;;;;;;11.30;7.45;;;;;;;27.43;54.58;99748.09;1749274;82;21428;-71
2021/08/01 07:06:18;;;;;;;8.23;7.10;;;;;;;27.61;54.11;99752.72;1749688;80;21110;-72
2021/08/01 07:08:45;;;;;;;8.98;7.62;;;;;;;27.76;54.02;99746.70;1748138;80;21520;-71
2021/08/01 07:11:11;;;;;;;9.18;7.55;;;;;;;27.91;53.45;99751.01;1749337;81;21485;-71
2021/08/01 07:13:38;;;;;;;8.90;6.85;;;;;;;28.03;53.12;99746.81;1748797;81;22177;-71
2021/08/01 07:16:05;;;;;;;8.60;6.85;;;;;;;28.15;51.99;99753.48;1748828;81;21487;-70
2021/08/01 07:18:33;;;;;;;9.93;6.87;;;;;;;28.25;51.81;99760.39;1749931;81;21022;-71
2021/08/01 07:21:00;;;;;;;8.85;6.75;;;;;;;28.37;50.66;99751.60;1748374;81;21083;-71
2021/08/01 07:23:27;;;;;;;8.58;7.10;;;;;;;28.51;50.38;99762.38;1715308;82;21035;-72
2021/08/01 07:25:55;;;;;;;10.68;6.60;;;;;;;28.65;49.94;99764.69;1745221;81;22247;-72
2021/08/01 07:28:22;;;;;;;10.32;6.55;;;;;;;28.76;49.94;99756.95;1745361;81;21067;-72
2021/08/01 07:30:51;;;;;;;8.78;6.72;;;;;;;28.89;49.91;99762.54;1743433;81;21032;-71
2021/08/01 07:33:18;;;;;;;10.00;6.53;;;;;;;28.98;49.74;99756.92;1746552;81;21023;-72
2021/08/01 07:35:44;;;;;;;9.78;6.72;;;;;;;29.08;49.60;99757.83;1748550;81;21017;-72
2021/08/01 07:38:10;;;;;;;12.82;7.17;;;;;;;29.18;48.83;99762.54;1731758;81;22926;-72
2021/08/01 07:40:37;;;;;;;7.37;6.58;;;;;;;29.22;48.94;99762.29;1751261;81;20972;-74
2021/08/01 07:43:04;;;;;;;11.80;6.67;;;;;;;29.27;48.92;99762.34;1682852;83;21040;-71
2021/08/01 07:45:33;;;;;;;7.33;6.62;;;;;;;29.27;48.21;99760.17;1699250;83;21037;-75
2021/08/01 07:47:59;;;;;;;8.60;6.37;;;;;;;29.27;48.67;99756.09;1699480;83;21595;-72
2021/08/01 07:50:27;;;;;;;13.15;6.62;;;;;;;29.32;49.13;99754.75;1675916;84;22811;-74
2021/08/01 07:52:53;;;;;;;13.68;6.40;;;;;;;29.43;49.75;99751.03;1692915;84;21110;-75
2021/08/01 07:55:20;;;;;;;8.93;6.33;;;;;;;29.60;48.57;99759.08;1697246;84;21027;-76
2021/08/01 07:57:50;;;;;;;13.08;6.03;;;;;;;29.72;45.95;99758.88;1694813;84;21071;-76
2021/08/01 08:00:17;;;;;;;8.48;6.10;;;;;;;29.81;46.01;99758.67;1743142;82;21025;-76
2021/08/01 08:02:44;;;;;;;11.38;6.60;;;;;;;29.91;45.46;99760.09;1743593;82;22177;-78
2021/08/01 08:05:12;;;;;;;8.25;6.22;;;;;;;29.98;45.59;99749.78;1743717;81;22201;-79
2021/08/01 08:07:39;;;;;;;9.28;6.00;;;;;;;30.07;45.58;99765.11;1742517;82;20984;-75
2021/08/01 08:10:06;;;;;;;9.53;5.87;;;;;;;30.18;46.02;99763.53;1744484;82;21078;-74
2021/08/01 08:12:34;;;;;;;10.30;5.70;;;;;;;30.31;45.99;99764.97;1740307;82;21035;-74
2021/08/01 08:15:00;;;;;;;10.75;6.03;;;;;;;30.47;44.83;99763.91;1744272;82;21824;-76
2021/08/01 08:17:33;;;;;;;12.15;5.58;;;;;;;30.58;43.72;99778.39;1731792;81;20993;-75
2021/08/01 08:19:56;;;;;;;8.78;5.58;;;;;;;30.65;42.13;99772.19;1748291;82;21441;-75
2021/08/01 08:22:23;;;;;;;7.53;5.15;;;;;;;30.68;42.00;99770.81;1748863;82;21059;-75
2021/08/01 08:24:50;;;;;;;7.80;5.87;;;;;;;30.71;42.77;99781.20;1749525;82;20956;-75
2021/08/01 08:27:18;;;;;;;10.18;5.97;;;;;;;30.79;41.86;99773.87;1709804;82;21034;-74
2021/08/01 08:29:44;;;;;;;8.88;5.78;;;;;;;30.84;41.21;99768.95;1679922;85;21080;-77
2021/08/01 08:32:11;;;;;;;13.38;5.60;;;;;;;30.88;41.10;99775.49;1681451;85;20974;-75
2021/08/01 08:34:37;;;;;;;9.25;5.78;;;;;;;30.88;40.42;99772.22;1657617;85;21135;-76
2021/08/01 08:37:03;;;;;;;11.25;5.58;;;;;;;30.88;40.79;99771.41;1685736;85;21109;-74
2021/08/01 08:39:31;;;;;;;20.05;6.40;;;;;;;30.86;40.48;99770.31;1675986;85;21738;-76
2021/08/01 08:42:00;;;;;;;8.18;5.83;;;;;;;30.85;41.66;99766.50;1673972;85;21002;-76
2021/08/01 08:44:28;;;;;;;7.75;5.50;;;;;;;30.87;42.26;99770.59;1686497;85;21115;-76
2021/08/01 08:46:55;;;;;;;7.53;5.17;;;;;;;30.90;40.82;99763.80;1681798;84;21020;-76
2021/08/01 08:49:22;;;;;;;10.15;5.70;;;;;;;30.93;41.31;99764.06;1681938;83;21105;-76
2021/08/01 08:51:52;;;;;;;9.35;5.90;;;;;;;31.09;41.85;99762.73;1661745;85;21831;-74
2021/08/01 08:54:26;;;;;;;8.45;5.72;;;;;;;31.09;41.85;99762.73;1661872;84;21004;-74
2021/08/01 08:56:54;;;;;;;6.55;5.75;;;;;;;31.18;41.53;99766.02;1670707;84;21009;-82
2021/08/01 08:59:21;;;;;;;14.15;5.65;;;;;;;31.33;40.17;99763.30;1674120;84;21460;-76
2021/08/01 09:01:48;;;;;;;8.00;5.17;;;;;;;31.33;40.17;99763.30;1675385;84;20965;-73
2021/08/01 09:04:14;;;;;;;8.58;5.40;;;;;;;31.40;41.31;99762.22;1675939;84;21844;-76
2021/08/01 09:06:41;;;;;;;8.35;4.85;;;;;;;31.53;42.31;99768.47;1627524;84;21134;-75
2021/08/01 09:09:10;;;;;;;11.75;5.58;;;;;;;31.65;39.58;99767.63;1661466;84;21400;-77
2021/08/01 09:11:37;;;;;;;6.62;5.20;;;;;;;31.71;39.21;99756.98;1657162;84;21084;-75
2021/08/01 09:14:04;;;;;;;11.35;5.50;;;;;;;31.78;38.34;99763.02;1675318;84;20943;-74
2021/08/01 09:16:50;;;;;;;7.78;5.55;;;;;;;31.80;38.71;99750.44;1666701;84;21088;-75
2021/08/01 09:19:36;;;;;;;8.63;5.12;;;;;;;31.85;38.81;99748.53;1669839;84;21069;-75
2021/08/01 09:22:16;;;;;;;15.08;5.28;;;;;;;31.97;38.55;99760.51;1673630;84;21426;-73
2021/08/01 09:24:51;;;;;;;11.75;5.15;;;;;;;32.04;38.32;99760.20;1673185;84;21071;-74
2021/08/01 09:27:34;;;;;;;13.83;5.65;;;;;;;32.05;37.39;99758.58;1673634;84;21114;-73
2021/08/01 09:30:02;;;;;;;7.30;5.65;;;;;;;32.05;37.44;99758.58;1673686;84;22472;-73
2021/08/01 09:32:31;;;;;;;8.65;5.17;;;;;;;32.05;37.61;99749.56;1675147;84;21518;-73
2021/08/01 09:34:57;;;;;;;8.08;5.40;;;;;;;32.08;37.85;99751.18;1629216;85;21006;-73
2021/08/01 09:37:33;;;;;;;9.88;4.83;;;;;;;32.14;36.35;99750.08;1674052;85;20993;-73
2021/08/01 09:40:08;;;;;;;7.15;4.72;;;;;;;32.16;36.04;99756.63;1673697;84;20953;-73
2021/08/01 09:42:46;;;;;;;13.83;5.50;;;;;;;32.24;34.58;99749.77;1673653;84;21916;-74
2021/08/01 09:45:18;;;;;;;8.10;5.60;;;;;;;32.33;35.74;99743.98;1655160;85;21523;-73
2021/08/01 09:47:46;;;;;;;10.15;5.33;;;;;;;32.40;35.78;99741.78;1693555;84;20997;-73
2021/08/01 09:50:14;;;;;;;8.98;5.25;;;;;;;32.45;36.21;99739.84;1691970;84;21479;-73
2021/08/01 09:52:42;;;;;;;7.50;5.00;;;;;;;32.58;35.90;99751.26;1676465;84;21483;-73
2021/08/01 09:55:20;;;;;;;5.35;4.75;;;;;;;32.65;35.91;99744.38;1678973;84;21880;-72
2021/08/01 09:57:52;;;;;;;8.28;4.95;;;;;;;32.62;35.80;99746.32;1674163;85;21050;-73
2021/08/01 10:00:20;;;;;;;;;;;;;;;32.60;35.99;99746.31;1652201;85;20984;-73
2021/08/01 10:02:46;;;;;;;10.88;4.80;;;;;;;32.60;36.42;99747.68;1695346;84;20434;-73
2021/08/01 10:05:23;;;;;;;7.83;5.15;;;;;;;32.58;36.75;99749.89;1693558;84;21029;-73
2021/08/01 10:07:51;;;;;;;5.42;4.78;;;;;;;32.56;36.08;99739.79;1666161;84;22253;-74
2021/08/01 10:10:24;;;;;;;9.60;5.17;;;;;;;32.45;36.02;99741.22;1657029;85;21054;-73
2021/08/01 10:12:59;;;;;;;6.22;4.90;;;;;;;32.37;36.67;99739.61;1679685;85;21049;-73
2021/08/01 10:15:23;;;;;;;7.70;4.47;;;;;;;32.38;36.45;99735.23;1694805;84;20992;-73
2021/08/01 10:17:52;;;;;;;7.03;4.83;;;;;;;32.46;36.15;99742.03;1669049;84;21115;-73
2021/08/01 10:20:18;;;;;;;6.70;4.50;;;;;;;32.56;35.62;99739.79;1689972;83;21813;-74
2021/08/01 10:22:45;;;;;;;4.65;4.25;;;;;;;32.62;35.46;99732.66;1695538;84;21030;-73
2021/08/01 10:25:24;;;;;;;7.80;4.55;;;;;;;32.79;36.61;99725.96;1695537;84;21457;-73
2021/08/01 10:27:53;;;;;;;6.10;4.75;;;;;;;32.96;35.72;99736.81;1677939;85;21005;-73
2021/08/01 10:30:21;;;;;;;7.45;4.45;;;;;;;33.07;34.67;99730.70;1673080;85;21501;-73
2021/08/01 10:32:53;;;;;;;11.20;4.97;;;;;;;33.16;35.27;99728.17;1695503;84;22812;-73
2021/08/01 10:35:22;;;;;;;7.97;4.27;;;;;;;33.29;35.02;99731.61;1695237;84;21474;-73
2021/08/01 10:38:03;;;;;;;9.30;4.80;;;;;;;33.34;33.81;99737.05;1695858;84;21627;-73
2021/08/01 10:40:33;;;;;;;8.80;4.67;;;;;;;33.32;33.75;99731.05;1689069;83;20973;-73
2021/08/01 10:43:09;;;;;;;10.90;5.10;;;;;;;33.19;33.98;99728.96;1694924;84;20977;-73
2021/08/01 10:45:37;;;;;;;8.85;4.70;;;;;;;33.09;35.09;99731.78;1708493;83;21819;-73
2021/08/01 10:48:06;;;;;;;6.28;4.95;;;;;;;33.13;35.57;99726.02;1709463;83;21540;-73
2021/08/01 10:50:32;;;;;;;7.83;5.15;;;;;;;33.17;35.21;99724.33;1691054;84;21028;-73
2021/08/01 10:53:24;;;;;;;12.18;5.03;;;;;;;33.12;35.55;99718.37;1687749;84;20981;-72
2021/08/01 10:55:57;;;;;;;10.32;5.47;;;;;;;33.06;36.13;99716.77;1690690;84;21047;-73
2021/08/01 10:58:29;;;;;;;7.75;5.67;;;;;;;33.03;35.82;99719.53;1688725;84;22683;-73
2021/08/01 11:00:59;;;;;;;7.78;5.20;;;;;;;33.09;36.49;99719.47;1689065;84;21675;-73
2021/08/01 11:03:33;;;;;;;10.98;5.60;;;;;;;33.22;36.54;99707.88;1692708;84;21005;-73
2021/08/01 11:06:00;;;;;;;5.83;5.22;;;;;;;33.38;36.47;99699.80;1693626;84;21021;-73
2021/08/01 11:08:27;;;;;;;9.45;5.20;;;;;;;33.56;36.82;99700.44;1692932;84;21056;-73
2021/08/01 11:11:16;;;;;;;10.00;5.10;;;;;;;33.77;36.30;99705.14;1693609;84;21013;-73
2021/08/01 11:13:48;;;;;;;7.20;5.10;;;;;;;33.88;35.64;99707.82;1692509;84;21017;-73
2021/08/01 11:16:33;;;;;;;9.60;4.72;;;;;;;33.88;34.93;99708.63;1692645;84;21057;-73
2021/08/01 11:19:00;;;;;;;8.75;5.08;;;;;;;33.91;33.74;99712.70;1693072;84;21267;-74
2021/08/01 11:21:37;;;;;;;6.45;5.15;;;;;;;33.88;33.79;99714.11;1693746;84;20949;-74
2021/08/01 11:24:11;;;;;;;11.08;5.83;;;;;;;33.87;34.10;99709.69;1672302;85;21817;-73
2021/08/01 11:27:08;;;;;;;11.57;5.17;;;;;;;33.94;35.20;99706.63;1687394;84;20973;-74
2021/08/01 11:30:02;;;;;;;13.35;8.40;;;;;;;34.08;34.95;99699.34;1693296;84;21407;-72
2021/08/01 11:32:31;;;;;;;14.95;7.35;;;;;;;34.24;34.84;99702.69;1693852;84;21013;-72
2021/08/01 11:35:17;;;;;;;8.85;5.60;;;;;;;34.38;34.22;99707.72;1692048;84;20963;-73
2021/08/01 11:37:45;;;;;;;5.50;4.42;;;;;;;34.44;33.56;99709.29;1658111;85;22474;-73
2021/08/01 11:40:12;;;;;;;5.95;5.00;;;;;;;34.56;34.59;99711.05;1680110;84;21631;-73